createdAt,value
2018-12-31T00:00:08.837Z,68.47
2018-12-31T00:02:41.808Z,67.00
2018-12-31T00:05:12.090Z,62.53
2018-12-31T00:07:42.351Z,69.90
2018-12-31T00:10:12.456Z,84.17
2018-12-31T00:12:47.889Z,57.17
2018-12-31T00:15:20.583Z,131.90
2018-12-31T00:17:52.248Z,62.43
2018-12-31T00:20:22.706Z,64.17
2018-12-31T00:22:53.163Z,60.37
2018-12-31T00:25:24.265Z,56.53
2018-12-31T00:27:55.756Z,55.07
2018-12-31T00:30:28.212Z,72.13
2018-12-31T00:32:58.341Z,76.37
2018-12-31T00:35:28.679Z,108.77
2018-12-31T00:38:01.393Z,61.50
2018-12-31T00:40:31.399Z,77.07
2018-12-31T00:43:01.982Z,100.43
2018-12-31T00:45:32.066Z,73.80
2018-12-31T00:48:04.763Z,51.53
2018-12-31T00:50:34.419Z,83.63
2018-12-31T00:53:04.221Z,71.83
2018-12-31T00:55:34.964Z,99.60
2018-12-31T00:58:09.746Z,52.30
2018-12-31T01:00:39.909Z,73.27
2018-12-31T01:03:09.967Z,72.93
2018-12-31T01:05:39.990Z,93.97
2018-12-31T01:08:10.520Z,72.33
2018-12-31T01:10:41.480Z,60.37
2018-12-31T01:13:11.966Z,51.13
2018-12-31T01:15:41.916Z,52.10
2018-12-31T01:18:13.132Z,58.80
2018-12-31T01:20:42.983Z,70.30
2018-12-31T01:23:12.682Z,43.90
2018-12-31T01:25:47.683Z,133.23
2018-12-31T01:28:23.992Z,48.13
2018-12-31T01:30:54.909Z,75.73
2018-12-31T01:33:28.560Z,67.63
2018-12-31T01:35:59.135Z,76.67
2018-12-31T01:38:32.927Z,111.07
2018-12-31T01:41:10.060Z,47.73
2018-12-31T01:43:39.903Z,79.80
2018-12-31T01:46:12.111Z,94.00
2018-12-31T01:48:42.099Z,103.00
2018-12-31T01:51:13.738Z,62.13
2018-12-31T01:53:44.999Z,59.70
2018-12-31T01:56:15.119Z,53.47
2018-12-31T01:58:45.051Z,70.83
2018-12-31T02:01:17.452Z,64.60
2018-12-31T02:03:47.955Z,54.07
2018-12-31T02:06:19.463Z,94.50
2018-12-31T02:08:52.365Z,57.67
2018-12-31T02:11:23.158Z,135.47
2018-12-31T02:13:53.014Z,43.13
2018-12-31T02:16:23.987Z,50.60
2018-12-31T02:18:54.151Z,45.60
2018-12-31T02:21:24.122Z,43.00
2018-12-31T02:23:56.340Z,59.70
2018-12-31T02:26:25.986Z,55.77
2018-12-31T02:28:56.327Z,47.07
2018-12-31T02:31:26.340Z,52.50
2018-12-31T02:33:55.976Z,44.47
2018-12-31T02:36:26.052Z,46.00
2018-12-31T02:38:58.374Z,37.87
2018-12-31T02:41:30.937Z,43.57
2018-12-31T02:44:01.154Z,35.63
2018-12-31T02:46:30.726Z,34.77
2018-12-31T02:49:00.439Z,44.60
2018-12-31T02:51:30.396Z,28.20
2018-12-31T02:54:01.382Z,32.33
2018-12-31T02:56:31.007Z,34.47
2018-12-31T02:59:01.008Z,28.67
2018-12-31T03:01:30.819Z,33.77
2018-12-31T03:04:00.450Z,30.60
2018-12-31T03:06:33.256Z,29.63
2018-12-31T03:09:03.558Z,27.37
2018-12-31T03:11:33.371Z,26.80
2018-12-31T03:14:05.847Z,24.70
2018-12-31T03:16:35.495Z,29.67
2018-12-31T03:19:05.189Z,24.30
2018-12-31T03:21:40.890Z,19.77
2018-12-31T03:24:10.748Z,18.43
2018-12-31T03:26:40.718Z,23.23
2018-12-31T03:29:12.087Z,22.30
2018-12-31T03:31:41.941Z,24.00
2018-12-31T03:34:12.027Z,24.10
2018-12-31T03:36:41.640Z,27.63
2018-12-31T03:39:13.918Z,24.30
2018-12-31T03:41:43.873Z,27.90
2018-12-31T03:44:13.858Z,29.43
2018-12-31T03:46:44.381Z,23.13
2018-12-31T03:49:15.990Z,20.97
2018-12-31T03:51:45.842Z,38.30
2018-12-31T03:54:15.689Z,33.50
2018-12-31T03:56:46.341Z,23.90
2018-12-31T03:59:16.190Z,35.30
2018-12-31T04:01:47.117Z,31.77
2018-12-31T04:04:16.994Z,30.50
2018-12-31T04:06:46.810Z,34.97
2018-12-31T04:09:16.514Z,31.30
2018-12-31T04:11:46.559Z,36.47
2018-12-31T04:14:16.218Z,42.43
2018-12-31T04:16:45.903Z,40.83
2018-12-31T04:19:16.020Z,33.47
2018-12-31T04:21:45.935Z,42.43
2018-12-31T04:24:15.927Z,40.23
2018-12-31T04:26:47.183Z,43.80
2018-12-31T04:29:17.076Z,42.90
2018-12-31T04:31:49.665Z,46.27
2018-12-31T04:34:19.491Z,39.70
2018-12-31T04:36:49.331Z,41.17
2018-12-31T04:39:19.470Z,41.33
2018-12-31T04:41:49.068Z,42.83
2018-12-31T04:44:19.314Z,51.23
2018-12-31T04:46:49.067Z,54.50
2018-12-31T04:49:19.186Z,52.90
2018-12-31T04:51:49.039Z,50.37
2018-12-31T04:54:18.766Z,62.67
2018-12-31T04:56:48.987Z,62.37
2018-12-31T04:59:20.218Z,62.03
2018-12-31T05:01:50.771Z,62.77
2018-12-31T05:04:22.159Z,70.20
2018-12-31T05:06:52.088Z,79.53
2018-12-31T05:09:23.211Z,72.10
2018-12-31T05:12:00.251Z,62.33
2018-12-31T05:14:30.108Z,84.97
2018-12-31T05:16:59.943Z,68.80
2018-12-31T05:19:29.662Z,66.50
2018-12-31T05:21:59.276Z,69.40
2018-12-31T05:24:31.000Z,81.83
2018-12-31T05:27:01.645Z,64.27
2018-12-31T05:29:31.261Z,78.03
2018-12-31T05:32:01.800Z,78.77
2018-12-31T05:34:32.275Z,74.13
2018-12-31T05:37:02.423Z,83.10
2018-12-31T05:39:32.737Z,95.43
2018-12-31T05:42:02.555Z,78.07
2018-12-31T05:44:32.514Z,74.00
2018-12-31T05:47:02.203Z,76.27
2018-12-31T05:49:31.981Z,73.67
2018-12-31T05:52:01.916Z,81.80
2018-12-31T05:54:31.620Z,80.83
2018-12-31T05:57:02.567Z,77.03
2018-12-31T05:59:32.362Z,69.50
2018-12-31T06:02:02.400Z,78.63
2018-12-31T06:04:32.103Z,83.13
2018-12-31T06:07:01.810Z,83.33
2018-12-31T06:09:31.511Z,79.03
2018-12-31T06:12:01.529Z,76.27
2018-12-31T06:14:31.675Z,71.60
2018-12-31T06:17:01.280Z,86.40
2018-12-31T06:19:31.099Z,68.93
2018-12-31T06:22:01.197Z,74.03
2018-12-31T06:24:30.893Z,80.47
2018-12-31T06:27:00.525Z,70.80
2018-12-31T06:29:30.852Z,64.97
2018-12-31T06:32:00.491Z,75.87
2018-12-31T06:34:30.128Z,74.10
2018-12-31T06:36:59.802Z,74.23
2018-12-31T06:39:29.588Z,73.93
2018-12-31T06:41:59.675Z,76.43
2018-12-31T06:44:29.307Z,71.83
2018-12-31T06:47:04.992Z,67.03
2018-12-31T06:49:34.637Z,87.70
2018-12-31T06:52:04.342Z,79.57
2018-12-31T06:54:37.218Z,81.87
2018-12-31T06:57:07.069Z,79.27
2018-12-31T06:59:39.163Z,70.10
2018-12-31T07:02:08.962Z,70.00
2018-12-31T07:04:38.875Z,78.13
2018-12-31T07:07:08.478Z,79.20
2018-12-31T07:09:38.130Z,85.40
2018-12-31T07:12:08.423Z,72.57
2018-12-31T07:14:38.306Z,75.03
2018-12-31T07:17:08.308Z,83.97
2018-12-31T07:19:40.422Z,78.23
2018-12-31T07:22:09.796Z,81.07
2018-12-31T07:24:39.951Z,96.47
2018-12-31T07:27:10.032Z,87.03
2018-12-31T07:29:39.678Z,100.87
2018-12-31T07:32:09.508Z,108.23
2018-12-31T07:34:42.092Z,108.00
2018-12-31T07:37:13.889Z,119.07
2018-12-31T07:39:43.563Z,105.00
2018-12-31T07:42:13.573Z,92.73
2018-12-31T07:44:43.331Z,115.83
2018-12-31T07:47:12.967Z,135.10
2018-12-31T07:49:43.251Z,112.53
2018-12-31T07:52:13.287Z,131.47
2018-12-31T07:54:45.765Z,125.20
2018-12-31T07:57:21.194Z,111.37
2018-12-31T08:00:13.087Z,141.43
2018-12-31T08:02:47.363Z,118.57
2018-12-31T08:05:17.078Z,147.20
2018-12-31T08:07:46.863Z,124.07
2018-12-31T08:10:18.840Z,141.93
2018-12-31T08:12:50.502Z,127.53
2018-12-31T08:15:21.077Z,146.10
2018-12-31T08:18:03.939Z,165.40
2018-12-31T08:20:56.169Z,163.83
2018-12-31T08:23:25.889Z,165.17
2018-12-31T08:25:57.407Z,183.23
2018-12-31T08:28:30.305Z,183.60
2018-12-31T08:31:20.251Z,158.10
2018-12-31T08:34:07.122Z,141.23
2018-12-31T08:36:24.596Z,141.93
2018-12-31T08:38:55.327Z,143.53
2018-12-31T08:41:34.366Z,157.03
2018-12-31T08:44:07.291Z,141.97
2018-12-31T08:46:46.559Z,140.93
2018-12-31T08:49:16.747Z,140.83
2018-12-31T08:51:53.558Z,135.83
2018-12-31T08:54:25.061Z,143.80
2018-12-31T08:56:58.314Z,148.37
2018-12-31T08:59:32.444Z,141.43
2018-12-31T09:02:03.233Z,140.80
2018-12-31T09:04:32.869Z,132.97
2018-12-31T09:07:04.142Z,134.70
2018-12-31T09:09:33.929Z,132.40
2018-12-31T09:12:04.198Z,135.97
2018-12-31T09:14:36.263Z,134.53
2018-12-31T09:17:05.964Z,151.57
2018-12-31T09:19:35.991Z,142.47
2018-12-31T09:22:10.786Z,141.70
2018-12-31T09:24:44.745Z,151.67
2018-12-31T09:27:12.530Z,150.90
2018-12-31T09:29:42.219Z,143.57
2018-12-31T09:32:11.980Z,132.17
2018-12-31T09:34:41.663Z,144.07
2018-12-31T09:37:14.759Z,154.57
2018-12-31T09:39:44.420Z,154.17
2018-12-31T09:42:14.268Z,163.50
2018-12-31T09:44:45.182Z,160.40
2018-12-31T09:47:15.467Z,154.20
2018-12-31T09:49:48.813Z,146.17
2018-12-31T09:52:18.643Z,167.07
2018-12-31T09:54:51.511Z,149.27
2018-12-31T09:57:21.303Z,145.60
2018-12-31T10:02:49.034Z,147.87
2018-12-31T10:05:25.764Z,143.57
2018-12-31T10:07:58.852Z,163.10
2018-12-31T10:10:31.791Z,151.37
2018-12-31T10:13:07.104Z,134.47
2018-12-31T10:15:37.896Z,157.87
2018-12-31T10:18:11.807Z,144.50
2018-12-31T10:20:46.972Z,164.23
2018-12-31T10:23:16.849Z,153.17
2018-12-31T10:25:49.984Z,121.87
2018-12-31T10:28:20.175Z,140.40
2018-12-31T10:30:50.020Z,148.40
2018-12-31T10:33:20.018Z,167.13
2018-12-31T10:35:50.120Z,171.53
2018-12-31T10:38:19.757Z,170.17
2018-12-31T10:40:49.778Z,156.13
2018-12-31T10:43:19.751Z,159.83
2018-12-31T10:45:50.615Z,171.57
2018-12-31T10:48:20.351Z,185.57
2018-12-31T10:51:00.071Z,159.90
2018-12-31T10:53:36.832Z,148.70
2018-12-31T10:56:06.984Z,160.03
2018-12-31T10:58:37.036Z,148.73
2018-12-31T11:01:06.754Z,176.17
2018-12-31T11:03:37.087Z,157.83
2018-12-31T11:06:06.987Z,149.40
2018-12-31T11:08:37.297Z,165.33
2018-12-31T11:11:07.399Z,162.60
2018-12-31T11:13:38.064Z,174.13
2018-12-31T11:16:08.090Z,172.90
2018-12-31T11:18:37.868Z,179.03
2018-12-31T11:21:07.769Z,167.13
2018-12-31T11:23:38.639Z,153.97
2018-12-31T11:26:08.934Z,142.17
2018-12-31T11:28:41.796Z,152.80
2018-12-31T11:31:11.708Z,142.20
2018-12-31T11:33:46.682Z,162.93
2018-12-31T11:36:17.167Z,145.47
2018-12-31T11:38:47.106Z,152.03
2018-12-31T11:41:17.183Z,162.47
2018-12-31T11:43:46.917Z,137.00
2018-12-31T11:46:16.660Z,150.73
2018-12-31T11:48:47.570Z,129.00
2018-12-31T11:51:17.317Z,140.30
2018-12-31T11:53:47.339Z,180.27
2018-12-31T11:56:17.560Z,137.10
2018-12-31T11:58:54.370Z,142.70
2018-12-31T12:01:27.322Z,145.63
2018-12-31T12:03:58.363Z,163.43
2018-12-31T12:06:34.400Z,168.70
2018-12-31T12:09:05.266Z,186.63
2018-12-31T12:11:35.949Z,163.07
2018-12-31T12:14:06.107Z,175.73
2018-12-31T12:16:51.183Z,149.37
2018-12-31T12:19:20.975Z,139.80
2018-12-31T12:21:54.541Z,131.53
2018-12-31T12:24:25.243Z,158.60
2018-12-31T12:27:11.500Z,167.57
2018-12-31T12:29:42.341Z,146.97
2018-12-31T12:32:23.916Z,130.13
2018-12-31T12:34:53.171Z,128.07
2018-12-31T12:37:24.689Z,135.03
2018-12-31T12:40:03.494Z,143.40
2018-12-31T12:42:34.116Z,127.13
2018-12-31T12:45:05.396Z,140.90
2018-12-31T12:47:37.630Z,153.70
2018-12-31T12:50:13.132Z,136.47
2018-12-31T12:52:48.624Z,138.37
2018-12-31T12:55:20.486Z,134.47
2018-12-31T12:57:50.780Z,126.07
2018-12-31T13:00:36.830Z,133.43
2018-12-31T13:03:10.549Z,121.87
2018-12-31T13:05:42.408Z,124.63
2018-12-31T13:08:19.363Z,131.67
2018-12-31T13:10:53.146Z,117.77
2018-12-31T13:13:35.999Z,115.80
2018-12-31T13:16:06.356Z,147.17
2018-12-31T13:18:37.001Z,117.03
2018-12-31T13:21:14.612Z,107.10
2018-12-31T13:23:47.668Z,127.87
2018-12-31T13:26:27.174Z,111.97
2018-12-31T13:29:11.718Z,102.10
2018-12-31T13:31:46.642Z,105.07
2018-12-31T13:34:18.171Z,111.70
2018-12-31T13:36:50.099Z,104.10
2018-12-31T13:39:20.195Z,88.63
2018-12-31T13:41:50.048Z,120.23
2018-12-31T13:44:20.207Z,96.03
2018-12-31T13:46:50.016Z,98.53
2018-12-31T13:49:20.346Z,129.30
2018-12-31T13:51:50.221Z,118.30
2018-12-31T13:54:28.904Z,100.50
2018-12-31T13:57:06.101Z,93.00
2018-12-31T13:59:38.400Z,115.67
2018-12-31T14:02:26.155Z,109.17
2018-12-31T14:05:10.398Z,112.43
2018-12-31T14:07:54.748Z,116.77
2018-12-31T14:10:25.847Z,113.27
2018-12-31T14:12:57.769Z,88.60
2018-12-31T14:15:36.448Z,115.23
2018-12-31T14:18:07.130Z,108.10
2018-12-31T14:20:37.000Z,104.37
2018-12-31T14:23:07.696Z,112.00
2018-12-31T14:25:51.487Z,113.63
2018-12-31T14:28:35.792Z,105.33
2018-12-31T14:31:37.958Z,114.87
2018-12-31T14:34:10.888Z,103.10
2018-12-31T14:36:41.208Z,90.23
2018-12-31T14:39:14.131Z,101.33
2018-12-31T14:41:48.786Z,98.70
2018-12-31T14:44:20.351Z,101.00
2018-12-31T14:46:52.366Z,110.77
2018-12-31T14:49:25.407Z,91.03
2018-12-31T14:51:55.381Z,101.80
2018-12-31T14:54:31.123Z,109.10
2018-12-31T14:57:07.009Z,91.57
2018-12-31T14:59:37.520Z,83.30
2018-12-31T15:02:08.824Z,69.40
2018-12-31T15:04:38.592Z,120.47
2018-12-31T15:07:08.575Z,97.47
2018-12-31T15:09:56.354Z,86.67
2018-12-31T15:12:29.068Z,96.07
2018-12-31T15:14:59.263Z,107.43
2018-12-31T15:17:29.119Z,102.02
2018-12-31T15:19:59.526Z,88.50
2018-12-31T15:22:32.280Z,76.53
2018-12-31T15:25:09.089Z,99.17
2018-12-31T15:27:45.321Z,101.37
2018-12-31T15:30:14.626Z,115.53
2018-12-31T15:32:45.624Z,103.33
2018-12-31T15:35:16.126Z,114.13
2018-12-31T15:37:50.864Z,112.53
2018-12-31T15:40:27.964Z,133.00
2018-12-31T15:43:01.160Z,109.95
2018-12-31T15:45:31.169Z,112.63
2018-12-31T15:48:01.576Z,123.00
2018-12-31T15:50:32.197Z,131.00
2018-12-31T15:53:07.229Z,112.73
2018-12-31T15:55:44.739Z,121.67
2018-12-31T15:58:15.183Z,109.20
2018-12-31T16:00:46.254Z,114.27
2018-12-31T16:03:19.009Z,110.50
2018-12-31T16:05:53.056Z,131.83
2018-12-31T16:08:22.559Z,135.00
2018-12-31T16:10:54.796Z,141.93
2018-12-31T16:13:25.464Z,117.00
2018-12-31T16:15:56.809Z,111.97
2018-12-31T16:18:27.815Z,137.43
2018-12-31T16:20:58.093Z,128.50
2018-12-31T16:23:28.084Z,134.17
2018-12-31T16:26:02.897Z,99.03
2018-12-31T16:28:33.047Z,116.33
2018-12-31T16:31:03.630Z,119.63
2018-12-31T16:33:33.447Z,103.40
2018-12-31T16:36:07.822Z,123.87
2018-12-31T16:38:48.334Z,106.43
2018-12-31T16:41:19.599Z,102.50
2018-12-31T16:43:50.700Z,117.53
2018-12-31T16:46:20.851Z,128.40
2018-12-31T16:48:52.755Z,115.67
2018-12-31T16:51:25.247Z,108.10
2018-12-31T16:53:55.561Z,113.70
2018-12-31T16:56:25.696Z,94.20
2018-12-31T16:58:55.900Z,137.00
2018-12-31T17:01:25.836Z,142.07
2018-12-31T17:03:57.004Z,127.00
2018-12-31T17:06:26.705Z,111.63
2018-12-31T17:08:59.826Z,237.57
2018-12-31T17:11:29.784Z,124.77
2018-12-31T17:13:59.456Z,112.07
2018-12-31T17:16:29.241Z,121.43
2018-12-31T17:18:59.094Z,108.93
2018-12-31T17:21:30.100Z,128.73
2018-12-31T17:24:00.615Z,127.10
2018-12-31T17:26:34.954Z,136.10
2018-12-31T17:29:15.801Z,119.50
2018-12-31T17:31:48.187Z,148.03
2018-12-31T17:34:22.323Z,154.80
2018-12-31T17:36:52.044Z,341.03
2018-12-31T17:39:26.360Z,121.43
2018-12-31T17:41:57.358Z,136.90
2018-12-31T17:44:37.234Z,120.10
2018-12-31T17:47:08.236Z,128.67
2018-12-31T17:49:43.918Z,119.17
2018-12-31T17:52:15.238Z,118.57
2018-12-31T17:54:54.998Z,134.37
2018-12-31T17:57:25.370Z,131.63
2018-12-31T17:59:55.702Z,128.50
2018-12-31T18:02:26.340Z,138.43
2018-12-31T18:04:56.380Z,148.13
2018-12-31T18:07:26.282Z,321.47
2018-12-31T18:10:03.168Z,597.03
2018-12-31T18:12:33.442Z,138.53
2018-12-31T18:15:03.425Z,124.23
2018-12-31T18:17:33.458Z,132.40
2018-12-31T18:20:06.532Z,191.40
2018-12-31T18:22:35.899Z,130.63
2018-12-31T18:25:06.712Z,154.83
2018-12-31T18:27:37.258Z,130.00
2018-12-31T18:30:11.922Z,148.83
2018-12-31T18:32:46.242Z,172.23
2018-12-31T18:35:16.244Z,147.43
2018-12-31T18:37:50.580Z,133.63
2018-12-31T18:40:22.331Z,120.60
2018-12-31T18:42:59.590Z,139.00
2018-12-31T18:45:44.273Z,136.27
2018-12-31T18:48:19.404Z,124.20
2018-12-31T18:50:49.714Z,149.03
2018-12-31T18:53:23.680Z,214.87
2018-12-31T18:55:56.445Z,194.27
2018-12-31T18:58:26.310Z,364.17
2018-12-31T19:00:56.669Z,149.40
2018-12-31T19:03:32.324Z,191.33
2018-12-31T19:06:30.194Z,195.63
2018-12-31T19:09:05.663Z,146.27
2018-12-31T19:11:38.933Z,175.77
2018-12-31T19:14:11.210Z,155.63
2018-12-31T19:16:44.572Z,163.90
2018-12-31T19:19:17.174Z,140.60
2018-12-31T19:21:55.878Z,127.77
2018-12-31T19:24:26.414Z,151.57
2018-12-31T19:26:56.673Z,248.83
2018-12-31T19:29:26.732Z,156.37
2018-12-31T19:32:10.102Z,127.40
2018-12-31T19:34:40.375Z,179.33
2018-12-31T19:37:21.544Z,152.40
2018-12-31T19:39:56.231Z,150.00
2018-12-31T19:42:27.227Z,159.23
2018-12-31T19:45:01.844Z,138.10
2018-12-31T19:47:38.103Z,152.07
2018-12-31T19:50:23.149Z,193.87
2018-12-31T19:53:00.846Z,141.47
2018-12-31T19:55:31.052Z,139.27
2018-12-31T19:58:04.190Z,136.93
2018-12-31T20:00:36.593Z,165.70
2018-12-31T20:03:17.506Z,321.10
2018-12-31T20:05:54.991Z,285.10
2018-12-31T20:08:29.043Z,230.10
2018-12-31T20:11:01.521Z,194.50
2018-12-31T20:13:32.175Z,143.20
2018-12-31T20:16:08.088Z,165.07
2018-12-31T20:18:42.103Z,155.07
2018-12-31T20:21:15.249Z,135.97
2018-12-31T20:23:46.464Z,161.30
2018-12-31T20:26:18.332Z,211.53
2018-12-31T20:28:49.105Z,229.17
2018-12-31T20:31:21.767Z,244.77
2018-12-31T20:33:54.309Z,186.07
2018-12-31T20:36:28.202Z,133.97
2018-12-31T20:38:58.742Z,199.27
2018-12-31T20:41:42.799Z,117.60
2018-12-31T20:44:14.970Z,151.30
2018-12-31T20:47:00.082Z,167.43
2018-12-31T20:49:57.654Z,149.43
2018-12-31T20:52:36.569Z,211.67
2018-12-31T20:55:10.507Z,139.53
2018-12-31T20:58:07.656Z,235.73
2018-12-31T21:00:44.883Z,333.20
2018-12-31T21:03:15.782Z,223.77
2018-12-31T21:05:57.550Z,175.57
2018-12-31T21:08:32.311Z,204.87
2018-12-31T21:11:06.818Z,177.10
2018-12-31T21:13:41.979Z,171.00
2018-12-31T21:16:15.047Z,535.50
2018-12-31T21:18:51.187Z,230.57
2018-12-31T21:21:25.457Z,326.47
2018-12-31T21:23:56.547Z,410.03
2018-12-31T21:26:27.019Z,190.10
2018-12-31T21:29:00.328Z,241.07
2018-12-31T21:31:34.335Z,333.70
2018-12-31T21:34:04.709Z,465.60
2018-12-31T21:36:51.179Z,262.20
2018-12-31T21:39:23.984Z,179.47
2018-12-31T21:41:54.542Z,356.67
2018-12-31T21:44:29.628Z,175.67
2018-12-31T21:47:00.452Z,284.73
2018-12-31T21:49:31.343Z,246.53
2018-12-31T21:52:04.138Z,185.17
2018-12-31T21:54:36.170Z,215.03
2018-12-31T21:57:07.169Z,249.80
2018-12-31T21:59:43.316Z,179.80
2018-12-31T22:02:19.383Z,367.83
2018-12-31T22:04:50.733Z,155.00
2018-12-31T22:07:26.954Z,138.57
2018-12-31T22:10:05.186Z,169.67
2018-12-31T22:12:38.451Z,278.43
2018-12-31T22:15:10.725Z,254.43
2018-12-31T22:17:45.697Z,192.13
2018-12-31T22:20:27.093Z,236.17
2018-12-31T22:23:03.542Z,313.13
2018-12-31T22:25:44.412Z,141.03
2018-12-31T22:28:17.844Z,217.93
2018-12-31T22:30:48.000Z,125.27
2018-12-31T22:33:19.443Z,125.73
2018-12-31T22:35:50.286Z,291.37
2018-12-31T22:38:26.789Z,202.83
2018-12-31T22:40:56.759Z,167.37
2018-12-31T22:43:27.665Z,129.37
2018-12-31T22:45:57.663Z,187.60
2018-12-31T22:48:28.371Z,204.13
2018-12-31T22:51:03.720Z,198.00
2018-12-31T22:53:35.393Z,1038.97
2018-12-31T22:56:08.075Z,742.77
2018-12-31T22:58:41.076Z,898.20
2018-12-31T23:01:42.914Z,2266.67
2018-12-31T23:04:15.902Z,2266.67
2018-12-31T23:06:53.819Z,2266.67
2018-12-31T23:09:41.213Z,2232.93
2018-12-31T23:12:15.278Z,2266.67
2018-12-31T23:15:02.307Z,1177.50
2018-12-31T23:17:50.740Z,939.53
2018-12-31T23:20:34.274Z,1230.33
2018-12-31T23:23:15.261Z,739.33
2018-12-31T23:25:47.203Z,1407.97
2018-12-31T23:28:17.388Z,793.87
2018-12-31T23:31:05.276Z,1005.77
2018-12-31T23:33:45.480Z,640.17
2018-12-31T23:36:25.473Z,454.43
2018-12-31T23:39:05.174Z,542.97
2018-12-31T23:41:32.556Z,667.23
2018-12-31T23:44:02.634Z,578.00
2018-12-31T23:46:34.203Z,358.67
2018-12-31T23:49:14.642Z,422.17
2018-12-31T23:51:45.995Z,474.23
2018-12-31T23:54:18.026Z,444.53
2018-12-31T23:56:56.133Z,456.23
2018-12-31T23:59:36.540Z,356.20
